createdAt,value
2018-07-17T00:00:38.891Z,59.90
2018-07-17T00:03:06.932Z,60.01
2018-07-17T00:05:34.964Z,60.18
2018-07-17T00:08:03.024Z,60.41
2018-07-17T00:10:31.048Z,60.85
2018-07-17T00:12:59.096Z,60.42
2018-07-17T00:15:27.155Z,60.80
2018-07-17T00:17:55.208Z,60.77
2018-07-17T00:20:23.267Z,61.11
2018-07-17T00:22:51.305Z,61.11
2018-07-17T00:25:19.337Z,61.64
2018-07-17T00:27:47.375Z,61.64
2018-07-17T00:30:15.408Z,62.21
2018-07-17T00:32:43.452Z,61.96
2018-07-17T00:35:11.484Z,61.82
2018-07-17T00:37:39.553Z,61.82
2018-07-17T00:40:07.600Z,62.49
2018-07-17T00:42:35.632Z,62.66
2018-07-17T00:45:03.695Z,62.44
2018-07-17T00:47:31.727Z,62.86
2018-07-17T00:49:59.756Z,62.98
2018-07-17T00:52:27.795Z,62.94
2018-07-17T00:54:55.839Z,62.73
2018-07-17T00:57:23.900Z,63.33
2018-07-17T00:59:51.952Z,63.10
2018-07-17T01:02:25.301Z,63.59
2018-07-17T01:04:58.704Z,63.32
2018-07-17T01:07:32.132Z,63.66
2018-07-17T01:10:05.628Z,63.33
2018-07-17T01:12:32.888Z,63.73
2018-07-17T01:15:04.063Z,63.94
2018-07-17T01:17:32.884Z,64.18
2018-07-17T01:20:00.930Z,64.43
2018-07-17T01:22:28.969Z,64.68
2018-07-17T01:24:57.012Z,64.68
2018-07-17T01:27:25.048Z,64.46
2018-07-17T01:29:53.088Z,64.50
2018-07-17T01:32:21.135Z,64.23
2018-07-17T01:34:49.181Z,64.84
2018-07-17T01:37:17.239Z,64.28
2018-07-17T01:39:45.290Z,64.78
2018-07-17T01:42:13.324Z,64.82
2018-07-17T01:44:41.364Z,65.23
2018-07-17T01:47:09.395Z,64.91
2018-07-17T01:49:37.431Z,65.06
2018-07-17T01:52:05.724Z,65.04
2018-07-17T01:54:33.752Z,65.14
2018-07-17T01:57:01.796Z,65.75
2018-07-17T01:59:29.851Z,65.13
2018-07-17T02:01:57.925Z,65.62
2018-07-17T02:04:25.994Z,65.42
2018-07-17T02:06:54.024Z,65.78
2018-07-17T02:09:22.063Z,65.63
2018-07-17T02:11:50.083Z,65.93
2018-07-17T02:14:18.123Z,66.14
2018-07-17T02:16:46.150Z,66.17
2018-07-17T02:19:14.199Z,66.39
2018-07-17T02:21:42.241Z,65.95
2018-07-17T02:24:10.282Z,66.05
2018-07-17T02:26:38.311Z,65.78
2018-07-17T02:29:06.365Z,66.43
2018-07-17T02:31:34.431Z,66.11
2018-07-17T02:34:02.496Z,66.25
2018-07-17T02:36:30.587Z,66.61
2018-07-17T02:38:58.560Z,66.23
2018-07-17T02:41:26.604Z,66.25
2018-07-17T02:43:54.640Z,66.57
2018-07-17T02:46:22.696Z,67.01
2018-07-17T02:48:50.724Z,67.08
2018-07-17T02:51:18.755Z,66.95
2018-07-17T02:53:46.792Z,66.79
2018-07-17T02:56:14.825Z,67.17
2018-07-17T02:58:42.866Z,66.93
2018-07-17T03:01:11.011Z,67.29
2018-07-17T03:03:39.054Z,67.37
2018-07-17T03:06:07.139Z,67.25
2018-07-17T03:08:35.176Z,67.38
2018-07-17T03:11:03.228Z,67.69
2018-07-17T03:13:31.249Z,67.15
2018-07-17T03:15:59.272Z,67.42
2018-07-17T03:18:27.331Z,67.80
2018-07-17T03:20:55.407Z,68.01
2018-07-17T03:23:23.455Z,67.63
2018-07-17T03:25:51.502Z,68.13
2018-07-17T03:28:19.554Z,67.62
2018-07-17T03:30:47.580Z,68.11
2018-07-17T03:33:15.626Z,67.85
2018-07-17T03:35:43.661Z,67.74
2018-07-17T03:38:11.688Z,68.18
2018-07-17T03:40:39.736Z,68.00
2018-07-17T03:43:07.765Z,68.06
2018-07-17T03:45:35.796Z,68.12
2018-07-17T03:48:03.867Z,68.08
2018-07-17T03:50:31.908Z,67.62
2018-07-17T03:52:59.952Z,67.76
2018-07-17T03:55:34.812Z,68.20
2018-07-17T03:58:02.831Z,68.39
2018-07-17T04:00:30.876Z,68.17
2018-07-17T04:02:58.969Z,68.32
2018-07-17T04:05:26.948Z,68.27
2018-07-17T04:07:54.972Z,68.30
2018-07-17T04:10:23.012Z,68.66
2018-07-17T04:12:51.035Z,68.52
2018-07-17T04:15:19.072Z,68.97
2018-07-17T04:17:47.107Z,68.51
2018-07-17T04:20:15.155Z,68.92
2018-07-17T04:22:43.207Z,68.84
2018-07-17T04:25:11.307Z,69.09
2018-07-17T04:27:39.332Z,69.19
2018-07-17T04:30:07.420Z,69.12
2018-07-17T04:32:35.460Z,69.39
2018-07-17T04:35:03.496Z,69.38
2018-07-17T04:37:31.517Z,69.36
2018-07-17T04:39:59.558Z,69.41
2018-07-17T04:42:27.578Z,69.76
2018-07-17T04:44:55.637Z,69.62
2018-07-17T04:47:23.663Z,69.59
2018-07-17T04:49:51.708Z,69.79
2018-07-17T04:52:19.748Z,69.76
2018-07-17T04:54:47.793Z,69.89
2018-07-17T04:57:15.816Z,69.85
2018-07-17T04:59:43.879Z,70.16
2018-07-17T05:02:11.924Z,69.75
2018-07-17T05:04:39.983Z,69.70
2018-07-17T05:07:08.021Z,70.45
2018-07-17T05:09:36.061Z,70.05
2018-07-17T05:12:04.095Z,69.98
2018-07-17T05:14:32.143Z,70.35
2018-07-17T05:17:00.173Z,70.18
2018-07-17T05:19:28.202Z,69.87
2018-07-17T05:21:56.251Z,69.95
2018-07-17T05:24:24.281Z,69.80
2018-07-17T05:26:52.324Z,69.10
2018-07-17T05:29:20.366Z,69.14
2018-07-17T05:31:48.420Z,68.97
2018-07-17T05:34:16.432Z,68.89
2018-07-17T05:36:44.472Z,68.97
2018-07-17T05:39:12.540Z,68.26
2018-07-17T05:41:40.587Z,67.74
2018-07-17T05:44:08.822Z,67.49
2018-07-17T05:46:36.869Z,67.99
2018-07-17T05:49:04.905Z,67.27
2018-07-17T05:51:32.959Z,66.69
2018-07-17T05:54:00.999Z,67.12
2018-07-17T05:56:29.044Z,66.77
2018-07-17T05:58:57.156Z,66.49
2018-07-17T06:01:25.209Z,66.62
2018-07-17T06:03:53.248Z,65.25
2018-07-17T06:06:21.301Z,65.18
2018-07-17T06:08:49.332Z,65.00
2018-07-17T06:11:17.393Z,64.89
2018-07-17T06:13:45.432Z,63.52
2018-07-17T06:16:13.484Z,63.91
2018-07-17T06:18:41.553Z,62.66
2018-07-17T06:21:09.683Z,63.01
2018-07-17T06:23:37.712Z,61.38
2018-07-17T06:26:06.165Z,60.80
2018-07-17T06:28:34.291Z,60.24
2018-07-17T06:31:02.336Z,59.81
2018-07-17T06:33:30.380Z,59.90
2018-07-17T06:35:58.435Z,58.92
2018-07-17T06:38:26.483Z,57.78
2018-07-17T06:40:54.527Z,58.27
2018-07-17T06:43:22.572Z,58.39
2018-07-17T06:45:50.619Z,57.92
2018-07-17T06:48:18.680Z,58.02
2018-07-17T06:50:46.806Z,57.71
2018-07-17T06:53:14.787Z,57.31
2018-07-17T06:55:42.832Z,57.28
2018-07-17T06:58:10.899Z,56.93
2018-07-17T07:00:38.979Z,56.25
2018-07-17T07:03:07.019Z,55.88
2018-07-17T07:05:35.255Z,55.37
2018-07-17T07:08:03.284Z,54.84
2018-07-17T07:10:31.348Z,54.27
2018-07-17T07:12:59.408Z,54.06
2018-07-17T07:15:27.475Z,53.95
2018-07-17T07:17:55.526Z,53.65
2018-07-17T07:20:23.592Z,52.56
2018-07-17T07:22:51.673Z,52.24
2018-07-17T07:25:19.707Z,51.54
2018-07-17T07:27:47.813Z,51.26
2018-07-17T07:30:15.848Z,50.43
2018-07-17T07:32:43.909Z,50.41
2018-07-17T07:35:11.953Z,49.33
2018-07-17T07:37:39.996Z,46.82
2018-07-17T07:40:08.044Z,49.27
2018-07-17T07:42:36.092Z,48.19
2018-07-17T07:45:04.160Z,47.39
2018-07-17T07:47:32.227Z,47.54
2018-07-17T07:50:00.264Z,46.59
2018-07-17T07:52:28.312Z,46.55
2018-07-17T07:54:56.348Z,46.27
2018-07-17T07:57:24.396Z,45.22
2018-07-17T07:59:52.436Z,45.31
2018-07-17T08:02:20.484Z,44.46
2018-07-17T08:04:48.536Z,43.06
2018-07-17T08:07:16.592Z,43.62
2018-07-17T08:09:44.671Z,42.01
2018-07-17T08:12:12.773Z,41.84
2018-07-17T08:14:40.764Z,41.60
2018-07-17T08:17:08.815Z,41.21
2018-07-17T08:19:36.859Z,40.64
2018-07-17T08:22:04.919Z,40.36
2018-07-17T08:24:32.996Z,38.83
2018-07-17T08:27:01.060Z,38.30
2018-07-17T08:29:29.114Z,37.88
2018-07-17T08:31:57.171Z,37.93
2018-07-17T08:34:25.232Z,37.15
2018-07-17T08:36:53.300Z,36.82
2018-07-17T08:39:21.340Z,36.27
2018-07-17T08:41:49.412Z,37.04
2018-07-17T08:44:17.487Z,35.32
2018-07-17T08:46:45.563Z,34.28
2018-07-17T08:49:13.631Z,35.91
2018-07-17T08:51:41.705Z,35.32
2018-07-17T08:54:09.844Z,34.31
2018-07-17T08:56:37.907Z,33.52
2018-07-17T08:59:06.039Z,32.65
2018-07-17T09:01:34.318Z,32.32
2018-07-17T09:04:03.385Z,31.87
2018-07-17T09:06:31.448Z,31.47
2018-07-17T09:09:00.367Z,30.53
2018-07-17T09:11:28.448Z,30.14
2018-07-17T09:13:56.504Z,30.12
2018-07-17T09:16:27.064Z,29.36
2018-07-17T09:18:55.442Z,28.94
2018-07-17T09:24:34.499Z,28.95
2018-07-17T09:27:02.572Z,28.44
2018-07-17T09:29:30.612Z,28.80
2018-07-17T09:31:58.647Z,28.18
2018-07-17T09:34:26.698Z,27.58
2018-07-17T09:36:54.907Z,27.84
2018-07-17T09:39:22.960Z,27.15
2018-07-17T09:41:50.992Z,26.91
2018-07-17T09:44:19.079Z,26.98
2018-07-17T09:46:47.095Z,26.66
2018-07-17T09:49:15.136Z,26.35
2018-07-17T09:51:43.172Z,26.13
2018-07-17T09:54:11.282Z,25.53
2018-07-17T09:56:39.272Z,25.68
2018-07-17T09:59:07.337Z,25.03
2018-07-17T10:01:40.690Z,25.44
2018-07-17T10:04:08.743Z,24.94
2018-07-17T10:06:36.770Z,24.76
2018-07-17T10:09:06.369Z,24.22
2018-07-17T10:11:34.416Z,24.37
2018-07-17T10:14:02.473Z,24.34
2018-07-17T10:16:30.532Z,24.69
2018-07-17T10:18:58.580Z,23.79
2018-07-17T10:21:26.628Z,23.93
2018-07-17T10:23:54.748Z,24.76
2018-07-17T10:26:22.818Z,23.47
2018-07-17T10:28:50.839Z,23.53
2018-07-17T10:31:18.880Z,23.74
2018-07-17T10:33:46.929Z,23.52
2018-07-17T10:36:14.956Z,23.26
2018-07-17T10:38:43.061Z,23.25
2018-07-17T10:41:11.076Z,23.25
2018-07-17T10:43:39.124Z,23.36
2018-07-17T10:46:07.400Z,23.14
2018-07-17T10:48:35.472Z,22.89
2018-07-17T10:51:03.503Z,23.00
2018-07-17T10:53:31.563Z,22.48
2018-07-17T10:55:59.612Z,23.00
2018-07-17T10:58:27.678Z,23.13
2018-07-17T11:00:55.742Z,22.66
2018-07-17T11:03:23.824Z,23.27
2018-07-17T11:05:51.866Z,22.80
2018-07-17T11:08:19.992Z,23.13
2018-07-17T11:10:47.965Z,24.24
2018-07-17T11:13:16.020Z,24.30
2018-07-17T11:15:44.060Z,23.99
2018-07-17T11:18:12.119Z,24.01
2018-07-17T11:20:40.164Z,23.78
2018-07-17T11:23:08.231Z,24.42
2018-07-17T11:25:36.277Z,23.98
2018-07-17T11:28:04.328Z,23.08
2018-07-17T11:30:32.408Z,22.78
2018-07-17T11:33:00.467Z,23.50
2018-07-17T11:35:28.543Z,23.14
2018-07-17T11:37:56.627Z,23.71
2018-07-17T11:40:24.681Z,23.36
2018-07-17T11:42:52.956Z,23.61
2018-07-17T11:45:20.996Z,23.22
2018-07-17T11:47:49.053Z,23.87
2018-07-17T11:50:17.142Z,24.75
2018-07-17T11:52:45.178Z,24.15
2018-07-17T11:55:13.259Z,24.97
2018-07-17T11:57:41.316Z,24.66
2018-07-17T12:00:09.380Z,25.58
2018-07-17T12:02:37.440Z,25.69
2018-07-17T12:05:05.528Z,25.80
2018-07-17T12:07:33.583Z,25.44
2018-07-17T12:10:01.629Z,25.16
2018-07-17T12:12:29.680Z,25.09
2018-07-17T12:14:57.739Z,25.02
2018-07-17T12:17:25.795Z,24.58
2018-07-17T12:19:53.919Z,24.34
2018-07-17T12:22:21.932Z,24.60
2018-07-17T12:24:50.001Z,23.92
2018-07-17T12:27:18.052Z,24.19
2018-07-17T12:29:46.149Z,23.72
2018-07-17T12:32:14.212Z,23.34
2018-07-17T12:34:42.268Z,23.29
2018-07-17T12:37:10.391Z,23.59
2018-07-17T12:39:38.444Z,23.82
2018-07-17T12:42:06.528Z,22.80
2018-07-17T12:44:34.612Z,22.66
2018-07-17T12:47:02.650Z,22.25
2018-07-17T12:49:30.696Z,21.77
2018-07-17T12:51:58.751Z,21.75
2018-07-17T12:54:26.827Z,21.31
2018-07-17T12:56:54.861Z,21.63
2018-07-17T12:59:22.920Z,21.27
2018-07-17T13:01:50.980Z,21.28
2018-07-17T13:04:19.066Z,21.28
2018-07-17T13:06:47.124Z,20.96
2018-07-17T13:09:15.205Z,21.14
2018-07-17T13:11:43.247Z,20.46
2018-07-17T13:14:11.304Z,20.71
2018-07-17T13:16:39.386Z,20.73
2018-07-17T13:19:07.496Z,20.55
2018-07-17T13:21:35.556Z,20.70
2018-07-17T13:24:03.611Z,20.03
2018-07-17T13:26:31.671Z,19.76
2018-07-17T13:28:59.721Z,19.46
2018-07-17T13:31:27.789Z,19.05
2018-07-17T13:33:55.862Z,19.17
2018-07-17T13:36:23.939Z,19.01
2018-07-17T13:38:51.983Z,19.20
2018-07-17T13:41:20.060Z,19.22
2018-07-17T13:43:48.194Z,19.03
2018-07-17T13:46:16.204Z,18.99
2018-07-17T13:48:44.275Z,19.21
2018-07-17T13:51:12.345Z,18.96
2018-07-17T13:53:40.432Z,18.90
2018-07-17T13:56:08.573Z,18.73
2018-07-17T13:58:36.571Z,18.43
2018-07-17T14:01:04.660Z,18.42
2018-07-17T14:03:32.717Z,18.38
2018-07-17T14:06:00.766Z,19.11
2018-07-17T14:08:28.845Z,19.07
2018-07-17T14:10:56.927Z,19.11
2018-07-17T14:13:24.988Z,19.10
2018-07-17T14:15:53.072Z,19.11
2018-07-17T14:18:21.116Z,18.65
2018-07-17T14:20:49.195Z,18.83
2018-07-17T14:23:17.263Z,18.71
2018-07-17T14:25:45.341Z,18.92
2018-07-17T14:28:13.396Z,19.00
2018-07-17T14:30:41.464Z,18.93
2018-07-17T14:33:09.520Z,19.36
2018-07-17T14:35:37.579Z,19.10
2018-07-17T14:38:05.644Z,19.34
2018-07-17T14:40:33.704Z,19.89
2018-07-17T14:43:01.744Z,19.73
2018-07-17T14:45:29.800Z,20.08
2018-07-17T14:47:57.844Z,20.16
2018-07-17T14:50:25.899Z,20.00
2018-07-17T14:52:53.953Z,19.99
2018-07-17T14:55:22.004Z,19.84
2018-07-17T14:57:50.060Z,20.06
2018-07-17T15:00:18.191Z,19.93
2018-07-17T15:02:46.209Z,20.39
2018-07-17T15:05:14.240Z,20.29
2018-07-17T15:07:42.307Z,20.39
2018-07-17T15:10:10.402Z,20.54
2018-07-17T15:12:38.448Z,20.71
2018-07-17T15:15:06.944Z,20.45
2018-07-17T15:17:34.996Z,20.71
2018-07-17T15:20:03.053Z,20.27
2018-07-17T15:22:31.143Z,20.44
2018-07-17T15:24:59.195Z,20.09
2018-07-17T15:27:27.249Z,20.71
2018-07-17T15:29:55.304Z,20.88
2018-07-17T15:32:23.383Z,20.49
2018-07-17T15:34:51.471Z,21.19
2018-07-17T15:37:19.528Z,21.31
2018-07-17T15:39:47.568Z,21.80
2018-07-17T15:42:15.643Z,21.12
2018-07-17T15:44:43.695Z,21.72
2018-07-17T15:47:12.072Z,21.52
2018-07-17T15:49:40.137Z,21.54
2018-07-17T15:52:08.188Z,20.83
2018-07-17T15:54:36.244Z,20.66
2018-07-17T15:57:04.329Z,20.37
2018-07-17T15:59:32.408Z,20.39
2018-07-17T16:02:00.467Z,21.07
2018-07-17T16:04:28.524Z,21.74
2018-07-17T16:06:56.640Z,21.94
2018-07-17T16:09:31.423Z,21.94
2018-07-17T16:11:59.484Z,21.59
2018-07-17T16:14:27.688Z,22.63
2018-07-17T16:16:55.604Z,22.56
2018-07-17T16:19:23.656Z,22.86
2018-07-17T16:21:51.756Z,22.82
2018-07-17T16:24:19.796Z,21.87
2018-07-17T16:26:47.849Z,21.78
2018-07-17T16:29:15.893Z,22.48
2018-07-17T16:31:43.952Z,22.02
2018-07-17T16:34:12.000Z,22.41
2018-07-17T16:36:40.102Z,23.04
2018-07-17T16:39:08.295Z,21.41
2018-07-17T16:41:36.347Z,21.08
2018-07-17T16:44:04.407Z,22.10
2018-07-17T16:46:32.495Z,20.40
2018-07-17T16:49:00.556Z,21.06
2018-07-17T16:51:28.600Z,20.64
2018-07-17T16:53:57.232Z,19.58
2018-07-17T16:56:25.515Z,19.89
2018-07-17T16:58:53.559Z,19.53
2018-07-17T17:01:21.966Z,19.84
2018-07-17T17:03:49.996Z,20.02
2018-07-17T17:06:18.046Z,19.81
2018-07-17T17:08:46.099Z,19.83
2018-07-17T17:11:14.164Z,19.03
2018-07-17T17:13:42.235Z,18.92
2018-07-17T17:16:10.276Z,18.79
2018-07-17T17:18:38.343Z,18.87
2018-07-17T17:21:06.424Z,19.99
2018-07-17T17:23:34.505Z,20.01
2018-07-17T17:26:02.560Z,20.15
2018-07-17T17:28:30.615Z,20.10
2018-07-17T17:30:58.691Z,19.95
2018-07-17T17:33:26.736Z,20.57
2018-07-17T17:35:54.800Z,21.00
2018-07-17T17:38:22.900Z,20.30
2018-07-17T17:40:50.967Z,20.95
2018-07-17T17:43:19.012Z,21.69
2018-07-17T17:45:47.059Z,22.03
2018-07-17T17:48:15.120Z,22.37
2018-07-17T17:50:43.182Z,22.12
2018-07-17T17:53:11.245Z,22.71
2018-07-17T17:55:39.296Z,22.72
2018-07-17T17:58:07.660Z,22.57
2018-07-17T18:00:35.704Z,22.27
2018-07-17T18:03:03.780Z,23.42
2018-07-17T18:05:31.843Z,23.11
2018-07-17T18:07:59.896Z,23.27
2018-07-17T18:10:27.944Z,23.44
2018-07-17T18:12:56.005Z,23.23
2018-07-17T18:15:24.047Z,23.90
2018-07-17T18:17:52.092Z,23.79
2018-07-17T18:20:20.132Z,23.82
2018-07-17T18:22:48.468Z,23.69
2018-07-17T18:25:16.495Z,24.63
2018-07-17T18:27:44.556Z,24.41
2018-07-17T18:30:12.597Z,24.20
2018-07-17T18:32:40.659Z,24.58
2018-07-17T18:35:08.714Z,24.14
2018-07-17T18:37:36.748Z,24.60
2018-07-17T18:40:04.824Z,25.24
2018-07-17T18:42:32.877Z,26.00
2018-07-17T18:45:00.935Z,26.64
2018-07-17T18:47:28.980Z,25.89
2018-07-17T18:50:12.311Z,26.57
2018-07-17T18:52:25.089Z,27.98
2018-07-17T18:54:53.131Z,27.32
2018-07-17T18:57:21.188Z,27.95
2018-07-17T18:59:49.311Z,28.26
2018-07-17T19:02:17.275Z,28.65
2018-07-17T19:04:45.331Z,29.15
2018-07-17T19:07:13.368Z,30.03
2018-07-17T19:09:41.414Z,32.76
2018-07-17T19:12:09.457Z,32.75
2018-07-17T19:14:37.731Z,35.77
2018-07-17T19:17:05.865Z,37.26
2018-07-17T19:19:33.924Z,37.65
2018-07-17T19:22:01.960Z,39.20
2018-07-17T19:24:37.045Z,43.40
2018-07-17T19:27:04.999Z,40.67
2018-07-17T19:29:33.048Z,41.02
2018-07-17T19:32:01.099Z,42.95
2018-07-17T19:34:29.454Z,44.26
2018-07-17T19:36:57.489Z,42.57
2018-07-17T19:39:25.532Z,43.20
2018-07-17T19:41:53.593Z,42.99
2018-07-17T19:44:21.677Z,43.74
2018-07-17T19:46:49.748Z,44.46
2018-07-17T19:49:17.788Z,44.41
2018-07-17T19:51:45.823Z,44.82
2018-07-17T19:54:13.872Z,45.38
2018-07-17T19:56:41.930Z,45.70
2018-07-17T19:59:09.992Z,45.38
2018-07-17T20:01:38.052Z,45.71
2018-07-17T20:04:06.396Z,46.79
2018-07-17T20:06:34.440Z,46.69
2018-07-17T20:09:02.508Z,47.50
2018-07-17T20:11:30.580Z,47.12
2018-07-17T20:13:58.640Z,47.88
2018-07-17T20:16:26.688Z,48.37
2018-07-17T20:18:54.739Z,48.18
2018-07-17T20:21:22.783Z,48.45
2018-07-17T20:23:50.836Z,48.47
2018-07-17T20:26:18.883Z,48.69
2018-07-17T20:28:46.978Z,48.99
2018-07-17T20:31:15.078Z,49.29
2018-07-17T20:33:43.187Z,49.13
2018-07-17T20:36:11.212Z,49.29
2018-07-17T20:38:39.247Z,49.51
2018-07-17T20:41:07.356Z,49.82
2018-07-17T20:43:35.392Z,50.38
2018-07-17T20:46:03.478Z,50.59
2018-07-17T20:48:31.516Z,50.97
2018-07-17T20:50:59.591Z,51.29
2018-07-17T20:53:27.636Z,50.91
2018-07-17T20:55:55.723Z,50.93
2018-07-17T20:58:23.791Z,51.08
2018-07-17T21:00:51.893Z,51.27
2018-07-17T21:03:19.936Z,51.68
2018-07-17T21:05:48.000Z,51.38
2018-07-17T21:08:16.912Z,51.43
2018-07-17T21:10:44.967Z,51.60
2018-07-17T21:13:13.136Z,51.28
2018-07-17T21:15:41.060Z,51.44
2018-07-17T21:18:09.087Z,51.41
2018-07-17T21:20:37.159Z,51.30
2018-07-17T21:23:05.211Z,51.03
2018-07-17T21:25:33.284Z,51.20
2018-07-17T21:28:01.363Z,51.45
2018-07-17T21:30:29.407Z,51.54
2018-07-17T21:32:57.480Z,51.66
2018-07-17T21:35:25.524Z,51.70
2018-07-17T21:37:53.561Z,51.78
2018-07-17T21:40:21.648Z,51.34
2018-07-17T21:42:49.685Z,51.31
2018-07-17T21:45:17.735Z,51.15
2018-07-17T21:47:45.775Z,51.14
2018-07-17T21:50:13.827Z,51.10
2018-07-17T21:52:41.880Z,51.01
2018-07-17T21:55:09.928Z,50.89
2018-07-17T21:57:37.982Z,51.05
2018-07-17T22:00:07.928Z,51.19
2018-07-17T22:02:35.984Z,51.80
2018-07-17T22:05:04.039Z,51.67
2018-07-17T22:07:32.080Z,51.73
2018-07-17T22:10:00.121Z,51.64
2018-07-17T22:12:28.160Z,52.02
2018-07-17T22:14:56.204Z,51.83
2018-07-17T22:17:24.237Z,52.01
2018-07-17T22:19:52.309Z,52.10
2018-07-17T22:22:20.386Z,52.35
2018-07-17T22:24:48.420Z,52.71
2018-07-17T22:27:16.507Z,53.11
2018-07-17T22:29:44.542Z,52.97
2018-07-17T22:32:12.615Z,52.93
2018-07-17T22:34:40.727Z,52.94
2018-07-17T22:37:08.842Z,53.45
2018-07-17T22:39:36.903Z,53.09
2018-07-17T22:42:04.971Z,53.23
2018-07-17T22:44:33.008Z,53.58
2018-07-17T22:47:01.056Z,53.55
2018-07-17T22:49:29.097Z,54.13
2018-07-17T22:51:57.167Z,54.58
2018-07-17T22:54:25.223Z,55.34
2018-07-17T22:56:53.291Z,54.96
2018-07-17T22:59:21.631Z,55.04
2018-07-17T23:01:49.699Z,55.17
2018-07-17T23:04:18.066Z,55.84
2018-07-17T23:06:46.164Z,55.70
2018-07-17T23:09:14.220Z,55.56
2018-07-17T23:11:42.285Z,56.18
2018-07-17T23:14:10.335Z,56.30
2018-07-17T23:16:38.435Z,56.63
2018-07-17T23:19:06.773Z,56.09
2018-07-17T23:21:34.833Z,56.60
2018-07-17T23:24:02.876Z,57.27
2018-07-17T23:26:31.105Z,57.49
2018-07-17T23:28:59.248Z,57.60
2018-07-17T23:31:27.312Z,57.75
2018-07-17T23:33:55.404Z,58.66
2018-07-17T23:36:23.525Z,58.34
2018-07-17T23:38:51.541Z,59.33
2018-07-17T23:41:19.604Z,58.98
2018-07-17T23:43:47.640Z,58.73
2018-07-17T23:46:15.715Z,59.69
2018-07-17T23:48:43.756Z,59.30
2018-07-17T23:51:11.812Z,60.13
2018-07-17T23:53:39.852Z,60.86
2018-07-17T23:56:07.909Z,60.55
2018-07-17T23:58:36.014Z,60.77
